sensor_id;sensor_type;location;lat;lon;timestamp;pressure;altitude;pressure_sealevel;temperature;humidity
31337;BME280;22846;42.654;23.314;2022-09-27T00:00:16;93595.16;;;25.89;50.45
31337;BME280;22846;42.654;23.314;2022-09-27T00:02:42;93593.66;;;25.88;50.09
31337;BME280;22846;42.654;23.314;2022-09-27T00:05:09;93599.63;;;25.87;50.13
31337;BME280;22846;42.654;23.314;2022-09-27T00:07:35;93601.31;;;25.84;49.86
31337;BME280;22846;42.654;23.314;2022-09-27T00:10:00;93604.06;;;25.84;50.03
31337;BME280;22846;42.654;23.314;2022-09-27T00:12:26;93593.59;;;25.83;49.82
31337;BME280;22846;42.654;23.314;2022-09-27T00:14:52;93607.34;;;25.88;49.74
31337;BME280;22846;42.654;23.314;2022-09-27T00:17:17;93615.56;;;25.88;49.83
31337;BME280;22846;42.654;23.314;2022-09-27T00:19:43;93617.06;;;25.89;49.77
31337;BME280;22846;42.654;23.314;2022-09-27T00:22:08;93590.31;;;25.70;49.98
31337;BME280;22846;42.654;23.314;2022-09-27T00:24:33;93610.00;;;25.83;49.93
31337;BME280;22846;42.654;23.314;2022-09-27T00:26:59;93617.56;;;25.88;50.48
31337;BME280;22846;42.654;23.314;2022-09-27T00:29:24;93599.06;;;25.83;50.19
31337;BME280;22846;42.654;23.314;2022-09-27T00:31:50;93611.97;;;25.82;51.00
31337;BME280;22846;42.654;23.314;2022-09-27T00:34:23;93626.25;;;25.86;50.63
31337;BME280;22846;42.654;23.314;2022-09-27T00:36:50;93609.22;;;25.82;49.84
31337;BME280;22846;42.654;23.314;2022-09-27T00:39:16;93603.13;;;25.87;50.97
31337;BME280;22846;42.654;23.314;2022-09-27T00:41:41;93608.59;;;25.87;50.68
31337;BME280;22846;42.654;23.314;2022-09-27T00:49:34;93605.28;;;25.83;50.68
31337;BME280;22846;42.654;23.314;2022-09-27T00:52:06;93602.06;;;25.85;49.84
31337;BME280;22846;42.654;23.314;2022-09-27T00:54:35;93595.25;;;25.80;50.59
31337;BME280;22846;42.654;23.314;2022-09-27T00:57:04;93595.84;;;25.84;50.82
31337;BME280;22846;42.654;23.314;2022-09-27T00:59:34;93587.63;;;25.84;50.02
31337;BME280;22846;42.654;23.314;2022-09-27T01:02:03;93597.53;;;25.82;50.57
31337;BME280;22846;42.654;23.314;2022-09-27T01:04:30;93587.16;;;25.86;50.65
31337;BME280;22846;42.654;23.314;2022-09-27T01:06:57;93558.34;;;25.76;50.27
31337;BME280;22846;42.654;23.314;2022-09-27T01:09:23;93586.13;;;25.83;50.28
31337;BME280;22846;42.654;23.314;2022-09-27T01:15:01;93583.38;;;25.83;50.68
31337;BME280;22846;42.654;23.314;2022-09-27T01:17:58;93591.59;;;25.83;50.95
31337;BME280;22846;42.654;23.314;2022-09-27T01:23:38;93553.75;;;25.82;50.95
31337;BME280;22846;42.654;23.314;2022-09-27T01:31:18;93565.44;;;25.82;50.65
31337;BME280;22846;42.654;23.314;2022-09-27T01:34:10;93572.91;;;25.82;50.81
31337;BME280;22846;42.654;23.314;2022-09-27T01:42:30;93576.09;;;25.80;50.83
31337;BME280;22846;42.654;23.314;2022-09-27T01:45:11;93559.41;;;25.78;51.12
31337;BME280;22846;42.654;23.314;2022-09-27T01:47:40;93597.25;;;25.80;51.13
31337;BME280;22846;42.654;23.314;2022-09-27T01:50:18;93574.59;;;25.79;51.52
31337;BME280;22846;42.654;23.314;2022-09-27T01:52:53;93591.78;;;25.80;51.55
31337;BME280;22846;42.654;23.314;2022-09-27T01:55:22;93574.59;;;25.79;51.14
31337;BME280;22846;42.654;23.314;2022-09-27T01:57:58;93578.72;;;25.75;51.07
31337;BME280;22846;42.654;23.314;2022-09-27T02:00:26;93565.50;;;25.73;51.23
31337;BME280;22846;42.654;23.314;2022-09-27T02:02:54;93547.22;;;25.79;50.60
31337;BME280;22846;42.654;23.314;2022-09-27T02:05:23;93554.88;;;25.75;50.95
31337;BME280;22846;42.654;23.314;2022-09-27T02:07:54;93551.34;;;25.75;50.29
31337;BME280;22846;42.654;23.314;2022-09-27T02:10:26;93558.66;;;25.78;50.71
31337;BME280;22846;42.654;23.314;2022-09-27T02:13:05;93542.38;;;25.74;51.32
31337;BME280;22846;42.654;23.314;2022-09-27T02:15:48;93510.78;;;25.73;51.04
31337;BME280;22846;42.654;23.314;2022-09-27T02:18:22;93514.72;;;25.72;50.54
31337;BME280;22846;42.654;23.314;2022-09-27T02:20:55;93541.00;;;25.79;50.67
31337;BME280;22846;42.654;23.314;2022-09-27T02:23:32;93532.78;;;25.79;51.02
31337;BME280;22846;42.654;23.314;2022-09-27T02:26:03;93510.91;;;25.79;50.99
31337;BME280;22846;42.654;23.314;2022-09-27T02:31:09;93497.69;;;25.77;51.07
31337;BME280;22846;42.654;23.314;2022-09-27T02:33:39;93481.72;;;25.76;50.78
31337;BME280;22846;42.654;23.314;2022-09-27T02:36:08;93479.28;;;25.78;50.91
31337;BME280;22846;42.654;23.314;2022-09-27T02:38:34;93477.19;;;25.73;50.85
31337;BME280;22846;42.654;23.314;2022-09-27T02:40:59;93478.53;;;25.77;51.20
31337;BME280;22846;42.654;23.314;2022-09-27T02:43:28;93490.72;;;25.76;50.78
31337;BME280;22846;42.654;23.314;2022-09-27T02:54:20;93502.88;;;25.75;50.83
31337;BME280;22846;42.654;23.314;2022-09-27T02:59:35;93509.88;;;25.76;50.92
31337;BME280;22846;42.654;23.314;2022-09-27T03:02:21;93513.81;;;25.75;51.14
31337;BME280;22846;42.654;23.314;2022-09-27T03:04:56;93491.13;;;25.75;50.87
31337;BME280;22846;42.654;23.314;2022-09-27T03:07:24;93479.75;;;25.76;50.56
31337;BME280;22846;42.654;23.314;2022-09-27T03:09:52;93459.84;;;25.76;50.62
31337;BME280;22846;42.654;23.314;2022-09-27T03:12:18;93457.56;;;25.74;50.31
31337;BME280;22846;42.654;23.314;2022-09-27T03:14:54;93442.69;;;25.75;50.26
31337;BME280;22846;42.654;23.314;2022-09-27T03:17:20;93431.72;;;25.75;50.79
31337;BME280;22846;42.654;23.314;2022-09-27T03:19:47;93445.09;;;25.73;50.75
31337;BME280;22846;42.654;23.314;2022-09-27T03:22:12;93437.84;;;25.70;50.99
31337;BME280;22846;42.654;23.314;2022-09-27T03:24:38;93433.41;;;25.73;50.76
31337;BME280;22846;42.654;23.314;2022-09-27T03:27:03;93441.44;;;25.76;50.86
31337;BME280;22846;42.654;23.314;2022-09-27T03:29:29;93441.13;;;25.74;50.56
31337;BME280;22846;42.654;23.314;2022-09-27T03:31:54;93439.94;;;25.75;50.20
31337;BME280;22846;42.654;23.314;2022-09-27T03:34:19;93434.47;;;25.75;50.56
31337;BME280;22846;42.654;23.314;2022-09-27T03:36:46;93440.69;;;25.76;50.49
31337;BME280;22846;42.654;23.314;2022-09-27T03:39:11;93445.69;;;25.77;50.91
31337;BME280;22846;42.654;23.314;2022-09-27T03:41:37;93442.97;;;25.77;51.29
31337;BME280;22846;42.654;23.314;2022-09-27T03:44:02;93426.81;;;25.79;50.96
31337;BME280;22846;42.654;23.314;2022-09-27T03:46:28;93432.56;;;25.81;51.36
31337;BME280;22846;42.654;23.314;2022-09-27T03:48:54;93421.31;;;25.79;50.94
31337;BME280;22846;42.654;23.314;2022-09-27T03:51:19;93422.38;;;25.82;51.75
31337;BME280;22846;42.654;23.314;2022-09-27T03:53:45;93435.00;;;25.79;52.00
31337;BME280;22846;42.654;23.314;2022-09-27T03:56:11;93446.34;;;25.87;51.79
31337;BME280;22846;42.654;23.314;2022-09-27T03:58:36;93443.13;;;25.88;52.09
31337;BME280;22846;42.654;23.314;2022-09-27T04:01:02;93436.25;;;25.78;53.05
31337;BME280;22846;42.654;23.314;2022-09-27T04:03:27;93404.25;;;25.56;52.10
31337;BME280;22846;42.654;23.314;2022-09-27T04:05:53;93438.59;;;25.85;51.62
31337;BME280;22846;42.654;23.314;2022-09-27T04:08:19;93431.41;;;25.88;51.33
31337;BME280;22846;42.654;23.314;2022-09-27T04:10:46;93441.88;;;25.89;52.08
31337;BME280;22846;42.654;23.314;2022-09-27T04:13:11;93434.66;;;25.86;52.37
31337;BME280;22846;42.654;23.314;2022-09-27T04:15:37;93430.94;;;25.89;52.34
31337;BME280;22846;42.654;23.314;2022-09-27T04:18:04;93427.19;;;25.87;52.43
31337;BME280;22846;42.654;23.314;2022-09-27T04:20:29;93425.22;;;25.87;52.07
31337;BME280;22846;42.654;23.314;2022-09-27T04:22:55;93435.75;;;25.94;51.51
31337;BME280;22846;42.654;23.314;2022-09-27T04:25:20;93431.03;;;25.95;51.67
31337;BME280;22846;42.654;23.314;2022-09-27T04:27:46;93431.03;;;25.95;52.01
31337;BME280;22846;42.654;23.314;2022-09-27T04:30:13;93433.31;;;25.96;52.22
31337;BME280;22846;42.654;23.314;2022-09-27T04:32:43;93410.09;;;25.92;50.79
31337;BME280;22846;42.654;23.314;2022-09-27T04:35:10;93415.63;;;25.97;50.32
31337;BME280;22846;42.654;23.314;2022-09-27T04:37:55;93425.84;;;25.97;50.76
31337;BME280;22846;42.654;23.314;2022-09-27T04:40:21;93421.09;;;25.97;51.04
31337;BME280;22846;42.654;23.314;2022-09-27T04:42:48;93414.16;;;25.96;50.98
31337;BME280;22846;42.654;23.314;2022-09-27T04:45:13;93422.06;;;25.94;51.14
31337;BME280;22846;42.654;23.314;2022-09-27T04:47:46;93439.72;;;25.93;51.32
31337;BME280;22846;42.654;23.314;2022-09-27T04:50:12;93459.63;;;25.94;51.21
31337;BME280;22846;42.654;23.314;2022-09-27T04:52:38;93461.63;;;25.93;51.16
31337;BME280;22846;42.654;23.314;2022-09-27T04:55:05;93444.91;;;25.91;51.53
31337;BME280;22846;42.654;23.314;2022-09-27T04:57:31;93449.66;;;25.91;51.34
31337;BME280;22846;42.654;23.314;2022-09-27T04:59:56;93444.38;;;25.87;51.01
31337;BME280;22846;42.654;23.314;2022-09-27T05:02:25;93443.41;;;25.90;51.01
31337;BME280;22846;42.654;23.314;2022-09-27T05:04:51;93441.88;;;25.89;51.21
31337;BME280;22846;42.654;23.314;2022-09-27T05:07:17;93425.47;;;25.89;51.31
31337;BME280;22846;42.654;23.314;2022-09-27T05:09:42;93437.63;;;25.88;51.17
31337;BME280;22846;42.654;23.314;2022-09-27T05:12:10;93423.41;;;25.84;50.81
31337;BME280;22846;42.654;23.314;2022-09-27T05:14:36;93432.66;;;25.87;50.77
31337;BME280;22846;42.654;23.314;2022-09-27T05:17:02;93405.28;;;25.87;51.03
31337;BME280;22846;42.654;23.314;2022-09-27T05:19:27;93410.75;;;25.87;51.40
31337;BME280;22846;42.654;23.314;2022-09-27T05:21:53;93427.19;;;25.87;51.38
31337;BME280;22846;42.654;23.314;2022-09-27T05:24:18;93416.22;;;25.87;51.30
31337;BME280;22846;42.654;23.314;2022-09-27T05:26:46;93406.50;;;25.86;51.09
31337;BME280;22846;42.654;23.314;2022-09-27T05:29:12;93415.94;;;25.85;51.21
31337;BME280;22846;42.654;23.314;2022-09-27T05:31:37;93404.53;;;25.86;51.15
31337;BME280;22846;42.654;23.314;2022-09-27T05:34:02;93399.06;;;25.86;51.30
31337;BME280;22846;42.654;23.314;2022-09-27T05:36:28;93411.25;;;25.85;50.89
31337;BME280;22846;42.654;23.314;2022-09-27T05:38:54;93416.72;;;25.85;50.58
31337;BME280;22846;42.654;23.314;2022-09-27T05:41:20;93420.97;;;25.86;50.71
31337;BME280;22846;42.654;23.314;2022-09-27T05:43:45;93413.97;;;25.85;51.28
31337;BME280;22846;42.654;23.314;2022-09-27T05:46:11;93435.88;;;25.85;50.72
31337;BME280;22846;42.654;23.314;2022-09-27T05:48:36;93432.34;;;25.85;50.67
31337;BME280;22846;42.654;23.314;2022-09-27T05:51:02;93428.41;;;25.86;51.08
31337;BME280;22846;42.654;23.314;2022-09-27T05:53:28;93425.66;;;25.86;50.91
31337;BME280;22846;42.654;23.314;2022-09-27T05:55:53;93419.44;;;25.85;51.01
31337;BME280;22846;42.654;23.314;2022-09-27T05:58:19;93407.72;;;25.85;50.76
31337;BME280;22846;42.654;23.314;2022-09-27T06:00:44;93391.50;;;25.81;50.77
31337;BME280;22846;42.654;23.314;2022-09-27T06:03:11;93420.66;;;25.84;50.24
31337;BME280;22846;42.654;23.314;2022-09-27T06:05:38;93419.44;;;25.85;50.59
31337;BME280;22846;42.654;23.314;2022-09-27T06:08:06;93423.41;;;25.84;50.46
31337;BME280;22846;42.654;23.314;2022-09-27T06:10:32;93408.41;;;25.80;50.58
31337;BME280;22846;42.654;23.314;2022-09-27T06:13:06;93417.16;;;25.84;50.55
31337;BME280;22846;42.654;23.314;2022-09-27T06:15:32;93414.44;;;25.84;50.45
31337;BME280;22846;42.654;23.314;2022-09-27T06:18:04;93416.91;;;25.82;50.15
31337;BME280;22846;42.654;23.314;2022-09-27T06:20:30;93415.19;;;25.84;50.12
31337;BME280;22846;42.654;23.314;2022-09-27T06:25:35;93407.72;;;25.85;50.25
31337;BME280;22846;42.654;23.314;2022-09-27T06:28:01;93409.25;;;25.86;50.18
31337;BME280;22846;42.654;23.314;2022-09-27T06:30:27;93400.28;;;25.85;50.30
31337;BME280;22846;42.654;23.314;2022-09-27T06:33:00;93408.69;;;25.82;50.09
31337;BME280;22846;42.654;23.314;2022-09-27T06:35:28;93409.25;;;25.86;49.95
31337;BME280;22846;42.654;23.314;2022-09-27T06:37:54;93424.91;;;25.85;50.20
31337;BME280;22846;42.654;23.314;2022-09-27T06:40:20;93412.66;;;25.81;50.24
31337;BME280;22846;42.654;23.314;2022-09-27T06:42:46;93425.66;;;25.86;50.50
31337;BME280;22846;42.654;23.314;2022-09-27T06:45:12;93422.19;;;25.85;50.09
31337;BME280;22846;42.654;23.314;2022-09-27T06:47:38;93430.41;;;25.85;49.81
31337;BME280;22846;42.654;23.314;2022-09-27T06:50:04;93431.13;;;25.86;50.19
31337;BME280;22846;42.654;23.314;2022-09-27T06:52:34;93413.19;;;25.85;49.66
31337;BME280;22846;42.654;23.314;2022-09-27T06:55:00;93418.69;;;25.85;49.59
31337;BME280;22846;42.654;23.314;2022-09-27T06:57:26;93404.16;;;25.79;50.00
31337;BME280;22846;42.654;23.314;2022-09-27T07:00:11;93418.69;;;25.85;49.91
31337;BME280;22846;42.654;23.314;2022-09-27T07:02:52;93407.47;;;25.83;49.85
31337;BME280;22846;42.654;23.314;2022-09-27T07:05:19;93417.94;;;25.84;49.99
31337;BME280;22846;42.654;23.314;2022-09-27T07:07:44;93427.38;;;25.83;50.08
31337;BME280;22846;42.654;23.314;2022-09-27T07:10:12;93431.63;;;25.84;49.89
31337;BME280;22846;42.654;23.314;2022-09-27T07:12:37;93423.41;;;25.84;49.50
31337;BME280;22846;42.654;23.314;2022-09-27T07:15:04;93421.91;;;25.83;50.06
31337;BME280;22846;42.654;23.314;2022-09-27T07:17:29;93425.38;;;25.84;49.91
31337;BME280;22846;42.654;23.314;2022-09-27T07:19:55;93419.16;;;25.83;50.20
31337;BME280;22846;42.654;23.314;2022-09-27T07:22:21;93412.94;;;25.83;49.40
31337;BME280;22846;42.654;23.314;2022-09-27T07:24:47;93417.94;;;25.84;49.57
31337;BME280;22846;42.654;23.314;2022-09-27T07:27:12;93419.91;;;25.84;49.93
31337;BME280;22846;42.654;23.314;2022-09-27T07:29:39;93410.94;;;25.83;49.24
31337;BME280;22846;42.654;23.314;2022-09-27T07:32:05;93421.91;;;25.83;49.60
31337;BME280;22846;42.654;23.314;2022-09-27T07:34:32;93415.19;;;25.84;49.06
31337;BME280;22846;42.654;23.314;2022-09-27T07:36:58;93430.84;;;25.84;49.33
31337;BME280;22846;42.654;23.314;2022-09-27T07:39:24;93439.06;;;25.84;49.05
31337;BME280;22846;42.654;23.314;2022-09-27T07:41:50;93449.28;;;25.83;49.41
31337;BME280;22846;42.654;23.314;2022-09-27T07:44:16;93460.22;;;25.83;49.51
31337;BME280;22846;42.654;23.314;2022-09-27T07:46:42;93465.69;;;25.83;49.05
31337;BME280;22846;42.654;23.314;2022-09-27T07:49:07;93461.72;;;25.84;49.26
31337;BME280;22846;42.654;23.314;2022-09-27T07:51:33;93458.22;;;25.84;49.51
31337;BME280;22846;42.654;23.314;2022-09-27T07:53:58;93464.94;;;25.83;48.94
31337;BME280;22846;42.654;23.314;2022-09-27T07:56:26;93460.22;;;25.83;48.86
31337;BME280;22846;42.654;23.314;2022-09-27T07:58:51;93447.75;;;25.82;49.24
31337;BME280;22846;42.654;23.314;2022-09-27T08:01:17;93451.25;;;25.83;49.04
31337;BME280;22846;42.654;23.314;2022-09-27T08:03:42;93447.75;;;25.82;48.64
31337;BME280;22846;42.654;23.314;2022-09-27T08:06:09;93406.41;;;25.80;49.17
31337;BME280;22846;42.654;23.314;2022-09-27T08:08:35;93373.84;;;25.82;48.96
31337;BME280;22846;42.654;23.314;2022-09-27T08:11:09;93386.81;;;25.82;48.37
31337;BME280;22846;42.654;23.314;2022-09-27T08:13:36;93411.44;;;25.82;48.28
31337;BME280;22846;42.654;23.314;2022-09-27T08:16:02;93403.22;;;25.82;48.01
31337;BME280;22846;42.654;23.314;2022-09-27T08:18:27;93425.13;;;25.82;48.39
31337;BME280;22846;42.654;23.314;2022-09-27T08:20:56;93449.28;;;25.83;48.69
31337;BME280;22846;42.654;23.314;2022-09-27T08:23:21;93440.31;;;25.83;48.53
31337;BME280;22846;42.654;23.314;2022-09-27T08:25:51;93436.81;;;25.82;49.02
31337;BME280;22846;42.654;23.314;2022-09-27T08:28:17;93436.81;;;25.82;48.00
31337;BME280;22846;42.654;23.314;2022-09-27T08:30:43;93429.38;;;25.83;48.26
31337;BME280;22846;42.654;23.314;2022-09-27T08:33:08;93410.66;;;25.81;47.92
31337;BME280;22846;42.654;23.314;2022-09-27T08:35:34;93397.94;;;25.78;47.89
31337;BME280;22846;42.654;23.314;2022-09-27T08:38:01;93407.47;;;25.83;48.03
31337;BME280;22846;42.654;23.314;2022-09-27T08:43:44;93398.50;;;25.82;48.13
31337;BME280;22846;42.654;23.314;2022-09-27T08:48:43;93400.75;;;25.84;48.01
31337;BME280;22846;42.654;23.314;2022-09-27T08:51:13;93407.72;;;25.85;47.60
31337;BME280;22846;42.654;23.314;2022-09-27T08:56:11;93398.78;;;25.84;47.60
31337;BME280;22846;42.654;23.314;2022-09-27T09:01:15;93390.56;;;25.84;47.75
31337;BME280;22846;42.654;23.314;2022-09-27T09:03:48;93381.88;;;25.86;47.98
31337;BME280;22846;42.654;23.314;2022-09-27T09:06:36;93378.69;;;25.87;47.59
31337;BME280;22846;42.654;23.314;2022-09-27T09:20:29;93375.53;;;25.94;47.50
31337;BME280;22846;42.654;23.314;2022-09-27T09:28:36;93372.88;;;26.00;48.10
31337;BME280;22846;42.654;23.314;2022-09-27T09:31:29;93381.84;;;26.00;47.78
31337;BME280;22846;42.654;23.314;2022-09-27T09:34:08;93371.63;;;26.01;47.61
31337;BME280;22846;42.654;23.314;2022-09-27T09:39:20;93372.69;;;26.03;48.04
31337;BME280;22846;42.654;23.314;2022-09-27T09:42:13;93368.44;;;26.02;47.92
31337;BME280;22846;42.654;23.314;2022-09-27T09:44:58;93371.44;;;26.04;47.73
31337;BME280;22846;42.654;23.314;2022-09-27T09:47:28;93376.91;;;26.04;47.48
31337;BME280;22846;42.654;23.314;2022-09-27T09:50:04;93384.84;;;26.02;47.86
31337;BME280;22846;42.654;23.314;2022-09-27T09:52:39;93376.63;;;26.02;47.87
31337;BME280;22846;42.654;23.314;2022-09-27T09:55:21;93371.91;;;26.03;47.83
31337;BME280;22846;42.654;23.314;2022-09-27T10:00:38;93360.50;;;26.04;47.50
31337;BME280;22846;42.654;23.314;2022-09-27T10:03:04;93372.19;;;26.05;47.30
31337;BME280;22846;42.654;23.314;2022-09-27T10:05:30;93357.47;;;26.02;47.73
31337;BME280;22846;42.654;23.314;2022-09-27T10:08:01;93367.44;;;26.05;47.89
31337;BME280;22846;42.654;23.314;2022-09-27T10:10:27;93369.44;;;26.05;47.60
31337;BME280;22846;42.654;23.314;2022-09-27T10:12:54;93349.78;;;26.06;47.53
31337;BME280;22846;42.654;23.314;2022-09-27T10:15:22;93356.78;;;26.07;47.83
31337;BME280;22846;42.654;23.314;2022-09-27T10:17:54;93348.03;;;26.03;47.81
31337;BME280;22846;42.654;23.314;2022-09-27T10:20:48;93364.25;;;26.07;47.84
31337;BME280;22846;42.654;23.314;2022-09-27T10:23:17;93353.31;;;26.07;47.80
31337;BME280;22846;42.654;23.314;2022-09-27T10:26:02;93353.75;;;26.05;47.81
31337;BME280;22846;42.654;23.314;2022-09-27T10:30:59;93351.03;;;26.05;47.57
31337;BME280;22846;42.654;23.314;2022-09-27T10:33:26;93355.28;;;26.06;47.28
31337;BME280;22846;42.654;23.314;2022-09-27T10:35:52;93347.06;;;26.06;47.22
31337;BME280;22846;42.654;23.314;2022-09-27T10:38:25;93356.78;;;26.07;47.20
31337;BME280;22846;42.654;23.314;2022-09-27T10:40:53;93358.28;;;26.08;47.50
31337;BME280;22846;42.654;23.314;2022-09-27T10:43:31;93341.38;;;26.10;47.49
31337;BME280;22846;42.654;23.314;2022-09-27T10:48:35;93323.25;;;26.12;47.23
31337;BME280;22846;42.654;23.314;2022-09-27T10:51:04;93327.75;;;26.15;47.64
31337;BME280;22846;42.654;23.314;2022-09-27T10:53:31;93305.31;;;26.11;47.45
31337;BME280;22846;42.654;23.314;2022-09-27T10:55:58;93304.91;;;26.18;47.33
31337;BME280;22846;42.654;23.314;2022-09-27T10:58:27;93302.44;;;26.20;47.08
31337;BME280;22846;42.654;23.314;2022-09-27T11:03:21;93298.00;;;26.23;47.26
31337;BME280;22846;42.654;23.314;2022-09-27T11:05:47;93293.53;;;26.25;47.38
31337;BME280;22846;42.654;23.314;2022-09-27T11:10:44;93290.31;;;26.27;46.89
31337;BME280;22846;42.654;23.314;2022-09-27T11:13:23;93281.13;;;26.30;46.90
31337;BME280;22846;42.654;23.314;2022-09-27T11:24:30;93294.88;;;26.35;46.71
31337;BME280;22846;42.654;23.314;2022-09-27T11:42:48;93245.47;;;26.44;46.79
31337;BME280;22846;42.654;23.314;2022-09-27T11:53:52;93233.78;;;26.49;46.79
31337;BME280;22846;42.654;23.314;2022-09-27T12:01:57;93222.16;;;26.54;46.51
31337;BME280;22846;42.654;23.314;2022-09-27T12:04:40;93216.19;;;26.55;46.61
31337;BME280;22846;42.654;23.314;2022-09-27T12:09:49;93201.53;;;26.58;46.49
31337;BME280;22846;42.654;23.314;2022-09-27T12:12:25;93199.06;;;26.60;46.49
31337;BME280;22846;42.654;23.314;2022-09-27T12:15:01;93222.00;;;26.63;46.40
31337;BME280;22846;42.654;23.314;2022-09-27T12:17:40;93187.88;;;26.64;46.43
31337;BME280;22846;42.654;23.314;2022-09-27T12:23:06;93195.88;;;26.67;46.22
31337;BME280;22846;42.654;23.314;2022-09-27T12:25:38;93198.88;;;26.69;46.04
31337;BME280;22846;42.654;23.314;2022-09-27T12:30:37;93134.84;;;26.72;46.14
31337;BME280;22846;42.654;23.314;2022-09-27T12:35:47;93159.28;;;26.76;45.94
31337;BME280;22846;42.654;23.314;2022-09-27T12:40:59;93150.84;;;26.79;45.92
31337;BME280;22846;42.654;23.314;2022-09-27T12:43:28;93133.94;;;26.81;46.01
31337;BME280;22846;42.654;23.314;2022-09-27T12:46:14;93119.00;;;26.82;45.77
31337;BME280;22846;42.654;23.314;2022-09-27T12:51:33;93127.72;;;26.86;45.48
31337;BME280;22846;42.654;23.314;2022-09-27T13:02:52;93104.09;;;26.94;45.74
31337;BME280;22846;42.654;23.314;2022-09-27T13:11:24;93131.25;;;26.92;45.59
31337;BME280;22846;42.654;23.314;2022-09-27T13:13:54;93134.28;;;26.99;45.45
31337;BME280;22846;42.654;23.314;2022-09-27T13:16:21;93146.28;;;27.02;45.32
31337;BME280;22846;42.654;23.314;2022-09-27T13:27:00;93134.66;;;27.12;45.21
31337;BME280;22846;42.654;23.314;2022-09-27T13:29:28;93115.69;;;27.14;45.29
31337;BME280;22846;42.654;23.314;2022-09-27T13:34:39;93116.22;;;27.18;45.12
31337;BME280;22846;42.654;23.314;2022-09-27T13:51:04;93145.22;;;27.35;44.78
31337;BME280;22846;42.654;23.314;2022-09-27T13:53:38;93135.03;;;27.36;44.76
31337;BME280;22846;42.654;23.314;2022-09-27T13:56:04;93135.50;;;27.34;44.72
31337;BME280;22846;42.654;23.314;2022-09-27T13:59:20;93147.22;;;27.30;44.80
31337;BME280;22846;42.654;23.314;2022-09-27T14:01:30;93129.75;;;27.27;44.77
31337;BME280;22846;42.654;23.314;2022-09-27T14:04:30;93126.22;;;27.27;44.80
31337;BME280;22846;42.654;23.314;2022-09-27T14:06:57;93125.75;;;27.28;44.89
31337;BME280;22846;42.654;23.314;2022-09-27T14:09:33;93123.28;;;27.30;45.04
31337;BME280;22846;42.654;23.314;2022-09-27T14:12:07;93115.06;;;27.30;45.10
31337;BME280;22846;42.654;23.314;2022-09-27T14:14:34;93114.56;;;27.32;44.82
31337;BME280;22846;42.654;23.314;2022-09-27T14:17:01;93123.53;;;27.32;45.02
31337;BME280;22846;42.654;23.314;2022-09-27T14:19:31;93115.28;;;27.32;45.01
31337;BME280;22846;42.654;23.314;2022-09-27T14:21:56;93117.03;;;27.30;45.07
31337;BME280;22846;42.654;23.314;2022-09-27T14:32:20;93101.53;;;27.16;44.86
31337;BME280;22846;42.654;23.314;2022-09-27T14:35:12;93096.25;;;27.12;45.11
31337;BME280;22846;42.654;23.314;2022-09-27T14:38:02;93098.47;;;27.08;45.14
31337;BME280;22846;42.654;23.314;2022-09-27T14:40:28;93107.69;;;27.05;45.21
31337;BME280;22846;42.654;23.314;2022-09-27T14:42:57;93103.94;;;27.03;45.21
31337;BME280;22846;42.654;23.314;2022-09-27T14:45:27;93104.44;;;27.01;45.21
31337;BME280;22846;42.654;23.314;2022-09-27T14:47:59;93094.63;;;26.95;45.29
31337;BME280;22846;42.654;23.314;2022-09-27T14:50:27;93101.13;;;26.97;45.30
31337;BME280;22846;42.654;23.314;2022-09-27T14:52:54;93118.81;;;26.91;45.20
31337;BME280;22846;42.654;23.314;2022-09-27T14:55:23;93121.78;;;26.93;45.34
31337;BME280;22846;42.654;23.314;2022-09-27T14:58:01;93126.25;;;26.90;45.59
31337;BME280;22846;42.654;23.314;2022-09-27T15:00:31;93128.72;;;26.88;45.53
31337;BME280;22846;42.654;23.314;2022-09-27T15:03:03;93137.44;;;26.87;45.21
31337;BME280;22846;42.654;23.314;2022-09-27T15:05:33;93142.66;;;26.85;45.50
31337;BME280;22846;42.654;23.314;2022-09-27T15:08:02;93162.34;;;26.83;45.43
31337;BME280;22846;42.654;23.314;2022-09-27T15:10:33;93224.38;;;26.81;45.45
31337;BME280;22846;42.654;23.314;2022-09-27T15:12:59;93230.59;;;26.81;45.31
31337;BME280;22846;42.654;23.314;2022-09-27T15:15:30;93211.91;;;26.80;45.45
31337;BME280;22846;42.654;23.314;2022-09-27T15:17:58;93228.59;;;26.76;45.44
31337;BME280;22846;42.654;23.314;2022-09-27T15:20:29;93225.06;;;26.76;45.48
31337;BME280;22846;42.654;23.314;2022-09-27T15:23:03;93265.94;;;26.74;45.50
31337;BME280;22846;42.654;23.314;2022-09-27T15:25:37;93266.63;;;26.69;45.58
31337;BME280;22846;42.654;23.314;2022-09-27T15:28:17;93247.44;;;26.69;45.75
31337;BME280;22846;42.654;23.314;2022-09-27T15:30:56;93266.63;;;26.69;45.80
31337;BME280;22846;42.654;23.314;2022-09-27T15:33:29;93254.16;;;26.68;45.53
31337;BME280;22846;42.654;23.314;2022-09-27T15:36:01;93260.13;;;26.66;45.41
31337;BME280;22846;42.654;23.314;2022-09-27T15:38:37;93256.38;;;26.64;45.64
31337;BME280;22846;42.654;23.314;2022-09-27T15:41:15;93264.31;;;26.62;45.84
31337;BME280;22846;42.654;23.314;2022-09-27T15:46:32;93283.94;;;26.35;42.92
31337;BME280;22846;42.654;23.314;2022-09-27T15:51:43;93237.88;;;25.54;44.35
31337;BME280;22846;42.654;23.314;2022-09-27T15:54:09;93255.03;;;25.35;45.75
31337;BME280;22846;42.654;23.314;2022-09-27T15:56:36;93261.16;;;25.30;46.56
31337;BME280;22846;42.654;23.314;2022-09-27T15:59:03;93265.97;;;25.35;47.16
31337;BME280;22846;42.654;23.314;2022-09-27T16:01:28;93263.34;;;25.46;47.21
31337;BME280;22846;42.654;23.314;2022-09-27T16:03:54;93256.53;;;25.56;46.53
31337;BME280;22846;42.654;23.314;2022-09-27T16:06:23;93288.31;;;25.67;46.67
31337;BME280;22846;42.654;23.314;2022-09-27T16:08:50;93283.75;;;25.79;46.74
31337;BME280;22846;42.654;23.314;2022-09-27T16:11:15;93282.81;;;25.67;45.09